createdAt,value
2017-10-21T00:02:11.621Z,95.53
2017-10-21T00:04:38.304Z,105.40
2017-10-21T00:07:04.967Z,107.00
2017-10-21T00:09:31.645Z,106.43
2017-10-21T00:11:58.349Z,110.27
2017-10-21T00:14:25.009Z,117.83
2017-10-21T00:16:51.680Z,118.67
2017-10-21T00:19:18.371Z,114.33
2017-10-21T00:21:45.032Z,112.03
2017-10-21T00:24:11.728Z,110.67
2017-10-21T00:26:38.398Z,105.57
2017-10-21T00:29:05.081Z,119.57
2017-10-21T00:31:31.750Z,113.93
2017-10-21T00:33:58.632Z,116.87
2017-10-21T00:36:25.320Z,112.57
2017-10-21T00:38:51.983Z,106.47
2017-10-21T00:41:18.680Z,109.17
2017-10-21T00:43:45.354Z,113.00
2017-10-21T00:46:12.025Z,118.20
2017-10-21T00:48:38.711Z,105.37
2017-10-21T00:51:05.373Z,100.30
2017-10-21T00:53:32.052Z,105.20
2017-10-21T00:55:58.707Z,94.50
2017-10-21T00:58:25.396Z,100.93
2017-10-21T01:00:52.053Z,104.00
2017-10-21T01:03:18.725Z,97.20
2017-10-21T01:05:45.421Z,98.60
2017-10-21T01:08:12.088Z,88.30
2017-10-21T01:10:38.760Z,92.57
2017-10-21T01:13:05.440Z,89.37
2017-10-21T01:15:32.120Z,86.67
2017-10-21T01:17:58.778Z,79.90
2017-10-21T01:20:25.459Z,80.17
2017-10-21T01:22:52.140Z,87.70
2017-10-21T01:25:18.788Z,81.97
2017-10-21T01:27:45.438Z,79.97
2017-10-21T01:30:12.112Z,85.60
2017-10-21T01:32:38.777Z,87.00
2017-10-21T01:35:05.448Z,80.20
2017-10-21T01:37:32.106Z,81.90
2017-10-21T01:39:58.784Z,92.43
2017-10-21T01:42:25.437Z,87.83
2017-10-21T01:44:52.129Z,90.87
2017-10-21T01:47:19.000Z,83.77
2017-10-21T01:49:45.652Z,90.57
2017-10-21T01:52:12.313Z,86.00
2017-10-21T01:54:38.994Z,81.70
2017-10-21T01:57:05.643Z,90.07
2017-10-21T01:59:32.317Z,89.07
2017-10-21T02:01:59.009Z,87.67
2017-10-21T02:04:25.667Z,85.50
2017-10-21T02:06:52.327Z,77.17
2017-10-21T02:09:19.004Z,81.87
2017-10-21T02:11:45.692Z,82.53
2017-10-21T02:14:12.348Z,84.10
2017-10-21T02:16:38.999Z,88.70
2017-10-21T02:19:05.681Z,78.20
2017-10-21T02:21:32.460Z,73.90
2017-10-21T02:23:59.146Z,75.50
2017-10-21T02:26:25.812Z,77.97
2017-10-21T02:28:52.497Z,81.13
2017-10-21T02:31:19.149Z,82.70
2017-10-21T02:33:45.832Z,80.63
2017-10-21T02:36:12.521Z,90.90
2017-10-21T02:38:39.200Z,87.27
2017-10-21T02:41:05.896Z,83.50
2017-10-21T02:43:32.597Z,81.63
2017-10-21T02:45:59.259Z,81.93
2017-10-21T02:48:25.933Z,83.10
2017-10-21T02:50:52.613Z,97.13
2017-10-21T02:53:19.271Z,89.43
2017-10-21T02:55:45.926Z,85.67
2017-10-21T02:58:12.602Z,84.93
2017-10-21T03:00:39.284Z,81.13
2017-10-21T03:03:05.944Z,88.43
2017-10-21T03:05:32.624Z,90.70
2017-10-21T03:07:59.281Z,81.40
2017-10-21T03:10:25.942Z,86.27
2017-10-21T03:12:52.617Z,87.07
2017-10-21T03:15:19.296Z,81.67
2017-10-21T03:17:45.956Z,81.27
2017-10-21T03:20:12.612Z,81.17
2017-10-21T03:22:39.293Z,79.87
2017-10-21T03:25:05.948Z,75.43
2017-10-21T03:27:32.592Z,78.70
2017-10-21T03:29:59.292Z,75.70
2017-10-21T03:32:25.945Z,67.93
2017-10-21T03:34:52.610Z,72.73
2017-10-21T03:37:19.303Z,74.67
2017-10-21T03:39:45.975Z,68.27
2017-10-21T03:42:12.631Z,68.53
2017-10-21T03:44:39.284Z,67.50
2017-10-21T03:47:05.960Z,70.37
2017-10-21T03:49:32.647Z,65.20
2017-10-21T03:51:59.300Z,65.90
2017-10-21T03:54:25.984Z,68.57
2017-10-21T03:56:52.661Z,62.20
2017-10-21T03:59:19.328Z,65.30
2017-10-21T04:01:46.010Z,72.50
2017-10-21T04:04:12.704Z,67.40
2017-10-21T04:06:39.369Z,66.50
2017-10-21T04:09:06.060Z,66.57
2017-10-21T04:11:32.780Z,66.10
2017-10-21T04:13:59.431Z,62.97
2017-10-21T04:16:26.105Z,62.43
2017-10-21T04:18:52.793Z,64.27
2017-10-21T04:21:19.445Z,62.37
2017-10-21T04:23:46.136Z,65.20
2017-10-21T04:26:12.793Z,61.10
2017-10-21T04:28:39.446Z,62.33
2017-10-21T04:31:06.119Z,61.83
2017-10-21T04:33:32.786Z,66.40
2017-10-21T04:35:59.440Z,67.87
2017-10-21T04:38:26.105Z,61.17
2017-10-21T04:40:52.768Z,62.07
2017-10-21T04:43:19.445Z,61.20
2017-10-21T04:45:46.108Z,60.40
2017-10-21T04:48:12.781Z,62.57
2017-10-21T04:50:39.465Z,63.83
2017-10-21T04:53:06.127Z,65.73
2017-10-21T04:55:32.924Z,63.20
2017-10-21T04:57:59.584Z,69.30
2017-10-21T05:00:26.257Z,65.83
2017-10-21T05:02:52.911Z,65.60
2017-10-21T05:05:19.564Z,64.40
2017-10-21T05:07:46.240Z,71.67
2017-10-21T05:10:12.919Z,68.90
2017-10-21T05:12:39.574Z,71.70
2017-10-21T05:15:06.225Z,79.80
2017-10-21T05:17:32.918Z,100.00
2017-10-21T05:19:59.572Z,88.03
2017-10-21T05:22:26.265Z,82.40
2017-10-21T05:24:52.931Z,82.17
2017-10-21T05:27:19.615Z,81.07
2017-10-21T05:29:46.296Z,79.90
2017-10-21T05:32:12.948Z,75.90
2017-10-21T05:34:39.629Z,75.87
2017-10-21T05:37:06.281Z,69.50
2017-10-21T05:39:32.959Z,71.10
2017-10-21T05:41:59.608Z,66.90
2017-10-21T05:44:26.265Z,60.77
2017-10-21T05:46:52.935Z,60.37
2017-10-21T05:49:19.587Z,58.80
2017-10-21T05:51:46.898Z,61.70
2017-10-21T05:54:13.578Z,67.83
2017-10-21T05:56:40.263Z,64.57
2017-10-21T05:59:06.913Z,58.17
2017-10-21T06:01:33.564Z,62.00
2017-10-21T06:04:00.257Z,63.37
2017-10-21T06:06:26.914Z,66.00
2017-10-21T06:08:53.608Z,70.57
2017-10-21T06:11:20.295Z,73.30
2017-10-21T06:13:46.973Z,74.90
2017-10-21T06:16:13.651Z,77.67
2017-10-21T06:18:40.343Z,73.17
2017-10-21T06:21:07.346Z,69.73
2017-10-21T06:23:34.020Z,68.10
2017-10-21T06:26:00.739Z,68.30
2017-10-21T06:28:27.396Z,67.50
2017-10-21T06:30:54.067Z,69.53
2017-10-21T06:33:20.737Z,65.07
2017-10-21T06:35:47.420Z,66.73
2017-10-21T06:38:14.072Z,71.40
2017-10-21T06:40:40.980Z,71.40
2017-10-21T06:43:07.633Z,66.53
2017-10-21T06:45:34.296Z,73.37
2017-10-21T06:48:00.972Z,71.47
2017-10-21T06:50:27.646Z,77.13
2017-10-21T06:52:54.593Z,77.87
2017-10-21T06:55:21.243Z,81.43
2017-10-21T06:57:47.889Z,72.10
2017-10-21T07:00:14.557Z,73.43
2017-10-21T07:02:41.217Z,71.67
2017-10-21T07:05:07.881Z,71.37
2017-10-21T07:07:34.562Z,74.90
2017-10-21T07:10:01.227Z,68.77
2017-10-21T07:12:27.909Z,76.50
2017-10-21T07:14:54.573Z,73.80
2017-10-21T07:17:21.253Z,73.60
2017-10-21T07:19:47.906Z,72.73
2017-10-21T07:22:14.564Z,70.87
2017-10-21T07:24:41.258Z,73.90
2017-10-21T07:27:07.917Z,99.30
2017-10-21T07:29:34.573Z,76.70
2017-10-21T07:32:01.253Z,84.70
2017-10-21T07:34:27.915Z,84.40
2017-10-21T07:36:54.616Z,94.90
2017-10-21T07:39:21.283Z,93.63
2017-10-21T07:41:47.971Z,86.20
2017-10-21T07:44:14.658Z,91.77
2017-10-21T07:46:41.352Z,91.60
2017-10-21T07:49:08.010Z,90.83
2017-10-21T07:51:34.688Z,88.37
2017-10-21T07:54:01.339Z,84.80
2017-10-21T07:56:28.079Z,92.17
2017-10-21T07:58:54.733Z,91.77
2017-10-21T08:01:21.418Z,91.37
2017-10-21T08:03:48.096Z,87.80
2017-10-21T08:06:14.767Z,94.43
2017-10-21T08:08:41.483Z,92.67
2017-10-21T08:11:08.333Z,92.57
2017-10-21T08:13:34.996Z,88.63
2017-10-21T08:16:01.668Z,87.20
2017-10-21T08:18:28.329Z,86.47
2017-10-21T08:20:54.988Z,80.73
2017-10-21T08:23:21.664Z,72.40
2017-10-21T08:25:48.317Z,70.77
2017-10-21T08:28:15.010Z,66.10
2017-10-21T08:30:41.668Z,61.20
2017-10-21T08:33:08.317Z,60.07
2017-10-21T08:35:34.996Z,59.37
2017-10-21T08:38:01.662Z,61.20
2017-10-21T08:40:28.304Z,64.13
2017-10-21T08:42:54.973Z,58.77
2017-10-21T08:45:21.624Z,73.47
2017-10-21T08:47:48.301Z,72.00
2017-10-21T08:50:14.966Z,61.10
2017-10-21T08:52:41.628Z,72.17
2017-10-21T08:55:08.295Z,65.63
2017-10-21T08:57:34.966Z,70.70
2017-10-21T09:00:01.687Z,87.57
2017-10-21T09:02:28.340Z,73.67
2017-10-21T09:04:54.996Z,73.10
2017-10-21T09:07:21.711Z,78.80
2017-10-21T09:09:48.393Z,71.27
2017-10-21T09:12:15.046Z,84.90
2017-10-21T09:14:41.727Z,81.80
2017-10-21T09:17:08.389Z,77.10
2017-10-21T09:19:35.492Z,75.60
2017-10-21T09:22:02.177Z,72.73
2017-10-21T09:24:28.974Z,70.90
2017-10-21T09:26:55.640Z,72.33
2017-10-21T09:29:22.318Z,72.70
2017-10-21T09:31:48.975Z,72.50
2017-10-21T09:34:15.655Z,75.67
2017-10-21T09:36:42.321Z,76.30
2017-10-21T09:39:09.462Z,70.67
2017-10-21T09:41:36.268Z,71.90
2017-10-21T09:44:02.926Z,66.03
2017-10-21T09:46:29.893Z,71.00
2017-10-21T09:48:56.542Z,63.57
2017-10-21T09:51:23.205Z,64.60
2017-10-21T09:53:49.883Z,68.30
2017-10-21T09:56:16.600Z,67.43
2017-10-21T09:58:43.296Z,66.47
2017-10-21T10:01:10.009Z,64.30
2017-10-21T10:03:36.689Z,66.33
2017-10-21T10:06:03.340Z,61.53
2017-10-21T10:08:30.001Z,62.90
2017-10-21T10:10:56.687Z,65.40
2017-10-21T10:13:23.353Z,59.00
2017-10-21T10:15:50.028Z,58.17
2017-10-21T10:18:16.689Z,76.07
2017-10-21T10:20:43.545Z,58.00
2017-10-21T10:23:10.183Z,58.40
2017-10-21T10:25:36.837Z,60.47
2017-10-21T10:28:03.508Z,55.60
2017-10-21T10:30:30.160Z,66.27
2017-10-21T10:32:56.837Z,61.03
2017-10-21T10:35:23.492Z,61.00
2017-10-21T10:37:50.138Z,55.77
2017-10-21T10:40:16.805Z,59.97
2017-10-21T10:42:43.453Z,57.53
2017-10-21T10:45:10.129Z,56.70
2017-10-21T10:47:36.817Z,57.70
2017-10-21T10:50:03.456Z,58.63
2017-10-21T10:52:30.136Z,63.73
2017-10-21T10:54:56.820Z,62.23
2017-10-21T10:57:23.477Z,60.67
2017-10-21T10:59:50.135Z,62.07
2017-10-21T11:02:16.808Z,60.10
2017-10-21T11:04:43.453Z,57.20
2017-10-21T11:07:10.128Z,56.67
2017-10-21T11:09:36.775Z,58.10
2017-10-21T11:12:03.465Z,58.77
2017-10-21T11:14:30.111Z,55.73
2017-10-21T11:16:56.785Z,60.67
2017-10-21T11:19:23.453Z,64.20
2017-10-21T11:21:50.151Z,63.37
2017-10-21T11:24:16.817Z,67.40
2017-10-21T11:26:43.493Z,70.27
2017-10-21T11:29:10.157Z,69.37
2017-10-21T11:31:36.833Z,70.57
2017-10-21T11:34:03.481Z,63.83
2017-10-21T11:36:30.161Z,62.67
2017-10-21T11:38:56.821Z,63.13
2017-10-21T11:41:23.616Z,63.43
2017-10-21T11:43:50.265Z,61.03
2017-10-21T11:46:16.944Z,61.93
2017-10-21T11:48:43.621Z,62.93
2017-10-21T11:51:10.284Z,60.47
2017-10-21T11:53:36.958Z,58.07
2017-10-21T11:56:03.615Z,60.00
2017-10-21T11:58:30.288Z,60.23
2017-10-21T12:00:56.980Z,58.53
2017-10-21T12:03:23.636Z,59.80
2017-10-21T12:05:50.311Z,58.73
2017-10-21T12:08:16.962Z,60.13
2017-10-21T12:10:43.613Z,56.37
2017-10-21T12:13:10.289Z,61.33
2017-10-21T12:15:36.952Z,58.37
2017-10-21T12:18:03.638Z,59.33
2017-10-21T12:20:30.300Z,56.77
2017-10-21T12:22:56.968Z,55.83
2017-10-21T12:25:23.622Z,56.40
2017-10-21T12:27:50.284Z,53.87
2017-10-21T12:30:16.983Z,53.37
2017-10-21T12:32:43.658Z,50.67
2017-10-21T12:35:10.332Z,48.73
2017-10-21T12:37:37.024Z,49.23
2017-10-21T12:40:03.692Z,48.23
2017-10-21T12:42:30.370Z,48.70
2017-10-21T12:44:57.018Z,47.33
2017-10-21T12:47:23.709Z,49.70
2017-10-21T12:49:50.353Z,45.50
2017-10-21T12:52:17.031Z,43.73
2017-10-21T12:54:43.696Z,43.20
2017-10-21T12:57:10.380Z,45.43
2017-10-21T12:59:37.061Z,44.50
2017-10-21T13:02:03.707Z,48.40
2017-10-21T13:04:30.412Z,47.00
2017-10-21T13:06:57.071Z,49.67
2017-10-21T13:09:23.768Z,51.50
2017-10-21T13:11:50.417Z,63.70
2017-10-21T13:14:17.077Z,58.73
2017-10-21T13:16:43.750Z,59.73
2017-10-21T13:19:10.412Z,59.70
2017-10-21T13:21:37.087Z,55.17
2017-10-21T13:24:03.760Z,53.23
2017-10-21T13:26:30.432Z,57.90
2017-10-21T13:28:57.125Z,59.53
2017-10-21T13:31:23.777Z,55.87
2017-10-21T13:33:50.445Z,52.93
2017-10-21T13:36:17.099Z,52.80
2017-10-21T13:38:43.788Z,50.80
2017-10-21T13:41:10.449Z,45.97
2017-10-21T13:43:37.098Z,49.90
2017-10-21T13:46:03.794Z,133.90
2017-10-21T13:48:30.448Z,52.50
2017-10-21T13:50:57.113Z,50.30
2017-10-21T13:53:23.786Z,49.10
2017-10-21T13:55:50.456Z,49.57
2017-10-21T13:58:17.147Z,53.80
2017-10-21T14:00:43.824Z,49.00
2017-10-21T14:03:10.498Z,53.10
2017-10-21T14:05:37.173Z,54.03
2017-10-21T14:08:03.821Z,50.43
2017-10-21T14:10:30.495Z,53.90
2017-10-21T14:12:57.159Z,56.70
2017-10-21T14:15:23.832Z,56.60
2017-10-21T14:17:50.504Z,53.90
2017-10-21T14:20:17.191Z,53.60
2017-10-21T14:22:43.878Z,52.73
2017-10-21T14:25:10.572Z,54.07
2017-10-21T14:27:37.285Z,54.17
2017-10-21T14:30:03.957Z,53.37
2017-10-21T14:32:30.750Z,51.90
2017-10-21T14:34:57.432Z,50.10
2017-10-21T14:37:25.984Z,50.93
2017-10-21T14:39:52.774Z,54.47
2017-10-21T14:42:19.445Z,50.67
2017-10-21T14:44:46.126Z,53.80
2017-10-21T14:47:12.796Z,53.20
2017-10-21T14:49:39.663Z,53.27
2017-10-21T14:52:06.921Z,51.30
2017-10-21T14:54:33.585Z,54.87
2017-10-21T14:57:02.023Z,53.47
2017-10-21T14:59:28.697Z,49.97
2017-10-21T15:01:55.343Z,48.33
2017-10-21T15:04:22.016Z,51.80
2017-10-21T15:06:48.690Z,51.17
2017-10-21T15:09:17.158Z,49.83
2017-10-21T15:11:43.831Z,53.23
2017-10-21T15:14:10.480Z,52.67
2017-10-21T15:16:37.793Z,51.90
2017-10-21T15:19:04.921Z,55.67
2017-10-21T15:21:31.740Z,54.93
2017-10-21T15:23:58.392Z,54.97
2017-10-21T15:26:26.184Z,52.47
2017-10-21T15:28:52.839Z,58.03
2017-10-21T15:31:19.520Z,85.83
2017-10-21T15:33:46.180Z,57.27
2017-10-21T15:36:12.845Z,59.50
2017-10-21T15:38:39.520Z,61.00
2017-10-21T15:41:06.165Z,59.03
2017-10-21T15:43:32.824Z,61.83
2017-10-21T15:45:59.503Z,61.57
2017-10-21T15:48:27.628Z,61.77
2017-10-21T15:50:54.283Z,61.60
2017-10-21T15:53:21.332Z,60.17
2017-10-21T15:55:48.547Z,61.83
2017-10-21T15:58:15.200Z,63.57
2017-10-21T16:00:41.861Z,61.90
2017-10-21T16:03:09.080Z,71.53
2017-10-21T16:05:36.385Z,67.40
2017-10-21T16:08:03.106Z,67.47
2017-10-21T16:10:30.964Z,66.67
2017-10-21T16:12:57.668Z,65.67
2017-10-21T16:15:24.360Z,68.60
2017-10-21T16:17:51.033Z,84.93
2017-10-21T16:20:17.717Z,69.87
2017-10-21T16:22:44.399Z,73.10
2017-10-21T16:25:11.056Z,72.07
2017-10-21T16:27:37.738Z,73.23
2017-10-21T16:30:04.418Z,83.30
2017-10-21T16:32:31.066Z,82.63
2017-10-21T16:34:57.744Z,78.47
2017-10-21T16:37:24.408Z,74.40
2017-10-21T16:39:51.092Z,72.97
2017-10-21T16:42:17.749Z,75.37
2017-10-21T16:44:44.424Z,79.13
2017-10-21T16:47:11.077Z,76.90
2017-10-21T16:49:37.776Z,82.07
2017-10-21T16:52:04.469Z,73.60
2017-10-21T16:54:31.120Z,75.53
2017-10-21T16:56:58.771Z,81.07
2017-10-21T16:59:25.448Z,82.57
2017-10-21T17:01:52.369Z,80.73
2017-10-21T17:04:19.046Z,80.30
2017-10-21T17:06:45.720Z,81.37
2017-10-21T17:09:12.398Z,81.77
2017-10-21T17:11:40.623Z,95.30
2017-10-21T17:14:07.276Z,86.07
2017-10-21T17:16:34.079Z,91.83
2017-10-21T17:19:01.609Z,90.93
2017-10-21T17:21:28.589Z,85.20
2017-10-21T17:23:55.308Z,84.60
2017-10-21T17:26:21.960Z,78.90
2017-10-21T17:28:49.441Z,81.10
2017-10-21T17:31:16.372Z,77.87
2017-10-21T17:33:43.060Z,75.60
2017-10-21T17:36:09.709Z,86.27
2017-10-21T17:38:36.364Z,85.50
2017-10-21T17:41:03.054Z,86.07
2017-10-21T17:43:29.746Z,86.07
2017-10-21T17:45:56.407Z,206.63
2017-10-21T17:48:23.088Z,144.77
2017-10-21T17:50:49.759Z,118.13
2017-10-21T17:53:16.428Z,111.73
2017-10-21T17:55:43.111Z,95.97
2017-10-21T17:58:09.763Z,78.50
2017-10-21T18:00:36.448Z,75.73
2017-10-21T18:03:03.105Z,75.57
2017-10-21T18:05:29.786Z,73.57
2017-10-21T18:07:56.452Z,74.50
2017-10-21T18:10:23.108Z,73.20
2017-10-21T18:12:49.793Z,75.60
2017-10-21T18:15:16.449Z,76.70
2017-10-21T18:17:43.355Z,89.97
2017-10-21T18:20:10.022Z,78.43
2017-10-21T18:22:36.681Z,77.20
2017-10-21T18:25:03.816Z,74.17
2017-10-21T18:27:30.505Z,72.87
2017-10-21T18:29:57.515Z,77.97
2017-10-21T18:32:24.452Z,77.70
2017-10-21T18:34:51.128Z,80.37
2017-10-21T18:37:17.784Z,82.97
2017-10-21T18:39:44.722Z,82.17
2017-10-21T18:42:11.385Z,81.37
2017-10-21T18:44:38.063Z,89.37
2017-10-21T18:47:04.756Z,88.27
2017-10-21T18:49:31.421Z,88.13
2017-10-21T18:51:58.128Z,107.30
2017-10-21T18:54:24.805Z,102.83
2017-10-21T18:56:51.499Z,101.87
2017-10-21T18:59:18.186Z,101.77
2017-10-21T19:01:44.908Z,107.97
2017-10-21T19:04:11.648Z,93.20
2017-10-21T19:06:38.322Z,103.57
2017-10-21T19:09:04.978Z,109.87
2017-10-21T19:11:31.672Z,109.37
2017-10-21T19:13:58.333Z,120.13
2017-10-21T19:16:25.015Z,104.97
2017-10-21T19:18:51.697Z,98.50
2017-10-21T19:21:18.358Z,91.67
2017-10-21T19:23:45.442Z,94.57
2017-10-21T19:26:12.129Z,92.27
2017-10-21T19:28:38.820Z,100.53
2017-10-21T19:31:05.532Z,116.17
2017-10-21T19:33:32.193Z,116.20
2017-10-21T19:35:58.869Z,109.83
2017-10-21T19:38:25.603Z,110.07
2017-10-21T19:40:52.269Z,114.60
2017-10-21T19:43:18.966Z,130.77
2017-10-21T19:45:45.656Z,144.70
2017-10-21T19:48:12.343Z,128.60
2017-10-21T19:50:39.001Z,116.73
2017-10-21T19:53:05.687Z,148.30
2017-10-21T19:55:32.355Z,123.53
2017-10-21T19:57:59.333Z,132.23
2017-10-21T20:00:25.985Z,137.37
2017-10-21T20:02:52.653Z,124.90
2017-10-21T20:05:19.333Z,125.60
2017-10-21T20:07:46.010Z,111.40
2017-10-21T20:10:13.072Z,117.77
2017-10-21T20:12:39.759Z,134.63
2017-10-21T20:15:06.429Z,153.40
2017-10-21T20:17:33.107Z,162.87
2017-10-21T20:19:59.772Z,160.93
2017-10-21T20:22:26.457Z,159.83
2017-10-21T20:24:53.121Z,163.73
2017-10-21T20:27:19.783Z,143.03
2017-10-21T20:29:46.478Z,198.20
2017-10-21T20:32:13.165Z,263.40
2017-10-21T20:34:39.822Z,144.10
2017-10-21T20:37:06.808Z,144.47
2017-10-21T20:39:33.491Z,147.83
2017-10-21T20:42:00.175Z,167.13
2017-10-21T20:44:26.876Z,171.97
2017-10-21T20:46:53.534Z,174.80
2017-10-21T20:49:20.221Z,159.60
2017-10-21T20:51:46.923Z,145.77
2017-10-21T20:54:13.611Z,126.03
2017-10-21T20:56:40.307Z,153.87
2017-10-21T20:59:06.990Z,154.53
2017-10-21T21:01:33.667Z,148.37
2017-10-21T21:04:00.553Z,133.67
2017-10-21T21:06:27.234Z,137.97
2017-10-21T21:08:53.922Z,134.70
2017-10-21T21:11:20.604Z,129.43
2017-10-21T21:13:47.294Z,161.23
2017-10-21T21:16:13.972Z,178.47
2017-10-21T21:18:40.627Z,148.73
2017-10-21T21:21:07.473Z,123.83
2017-10-21T21:23:34.130Z,125.60
2017-10-21T21:26:00.800Z,116.50
2017-10-21T21:28:27.482Z,125.63
2017-10-21T21:30:54.169Z,106.67
2017-10-21T21:33:20.834Z,106.80
2017-10-21T21:35:47.528Z,114.83
2017-10-21T21:38:14.191Z,105.50
2017-10-21T21:40:40.867Z,117.50
2017-10-21T21:43:07.526Z,115.30
2017-10-21T21:45:34.205Z,115.43
2017-10-21T21:48:00.867Z,111.97
2017-10-21T21:50:27.549Z,118.67
2017-10-21T21:52:54.213Z,120.47
2017-10-21T21:55:20.869Z,117.97
2017-10-21T21:57:47.560Z,117.90
2017-10-21T22:00:14.220Z,121.17
2017-10-21T22:02:40.911Z,113.27
2017-10-21T22:05:07.572Z,111.57
2017-10-21T22:07:34.232Z,123.67
2017-10-21T22:10:00.913Z,119.10
2017-10-21T22:12:27.964Z,111.90
2017-10-21T22:14:54.619Z,109.70
2017-10-21T22:17:21.273Z,116.90
2017-10-21T22:19:47.970Z,127.77
2017-10-21T22:22:14.633Z,123.57
2017-10-21T22:24:41.306Z,115.23
2017-10-21T22:27:07.963Z,128.47
2017-10-21T22:29:34.626Z,111.47
2017-10-21T22:32:01.316Z,120.97
2017-10-21T22:34:27.991Z,115.70
2017-10-21T22:36:54.654Z,127.37
2017-10-21T22:39:21.356Z,151.03
2017-10-21T22:41:48.039Z,106.17
2017-10-21T22:44:14.708Z,97.77
2017-10-21T22:46:41.391Z,93.57
2017-10-21T22:49:08.060Z,106.07
2017-10-21T22:51:34.741Z,108.03
2017-10-21T22:54:01.401Z,114.20
2017-10-21T22:56:28.076Z,110.10
2017-10-21T22:58:54.740Z,102.50
2017-10-21T23:01:21.429Z,108.90
2017-10-21T23:03:48.088Z,112.97
2017-10-21T23:06:14.766Z,110.87
2017-10-21T23:08:41.711Z,114.80
2017-10-21T23:11:08.368Z,116.73
2017-10-21T23:13:35.031Z,121.80
2017-10-21T23:16:01.709Z,118.47
2017-10-21T23:18:28.396Z,116.80
2017-10-21T23:20:55.069Z,126.60
2017-10-21T23:23:21.748Z,118.07
2017-10-21T23:25:48.427Z,107.40
2017-10-21T23:28:15.252Z,98.23
2017-10-21T23:30:41.911Z,96.97
2017-10-21T23:33:08.576Z,103.60
2017-10-21T23:35:35.252Z,99.67
2017-10-21T23:38:01.927Z,98.87
2017-10-21T23:40:28.588Z,103.63
2017-10-21T23:42:55.288Z,100.37
2017-10-21T23:45:21.969Z,91.63
2017-10-21T23:47:48.636Z,115.13
2017-10-21T23:50:15.297Z,122.17
2017-10-21T23:52:41.972Z,122.03
2017-10-21T23:55:08.638Z,120.27
2017-10-21T23:57:35.300Z,127.77
